Time;durP1;ratioP1;P1;durP2;ratioP2;P2;SDS_P1;SDS_P2;PMS_P1;PMS_P2;Temp;Humidity;BMP_temperature;BMP_pressure;BME280_temperature;BME280_humidity;BME280_pressure;Samples;Min_cycle;Max_cycle;Signal;HPM_P1;HPM_P2
2024/01/11 00:00:48;;;;;;;3.70;1.23;;;;;;;;;;4990824;28;20060;-52
2024/01/11 00:03:13;;;;;;;3.72;1.42;;;;;;;;;;4992559;28;20440;-51
2024/01/11 00:05:39;;;;;;;3.72;1.73;;;;;;;;;;4995495;28;20030;-48
2024/01/11 00:08:05;;;;;;;3.92;1.90;;;;;;;;;;4992979;28;20488;-48
2024/01/11 00:10:30;;;;;;;3.90;3.00;;;;;;;;;;4995680;28;20045;-51
2024/01/11 00:12:55;;;;;;;1.63;1.35;;;;;;;;;;4986700;28;20461;-50
2024/01/11 00:15:21;;;;;;;1.80;1.42;;;;;;;;;;4990375;28;20085;-49
2024/01/11 00:17:46;;;;;;;3.03;1.33;;;;;;;;;;4994935;28;20023;-50
2024/01/11 00:20:12;;;;;;;1.88;1.40;;;;;;;;;;4992017;28;20455;-48
2024/01/11 00:22:37;;;;;;;3.22;1.75;;;;;;;;;;4985695;28;20406;-48
2024/01/11 00:25:04;;;;;;;1.90;1.50;;;;;;;;;;4994497;28;20129;-51
2024/01/11 00:27:29;;;;;;;1.90;1.10;;;;;;;;;;4981871;28;20038;-51
2024/01/11 00:29:54;;;;;;;2.42;1.35;;;;;;;;;;4992229;28;20034;-50
2024/01/11 00:32:21;;;;;;;2.67;1.40;;;;;;;;;;4994870;28;20026;-50
2024/01/11 00:34:47;;;;;;;2.28;1.50;;;;;;;;;;4997828;28;20058;-50
2024/01/11 00:37:12;;;;;;;1.75;1.50;;;;;;;;;;4991373;28;20085;-50
2024/01/11 00:39:37;;;;;;;2.42;0.95;;;;;;;;;;4997245;28;20035;-49
2024/01/11 00:42:03;;;;;;;2.03;1.25;;;;;;;;;;4998849;28;20061;-47
2024/01/11 00:44:29;;;;;;;5.07;1.73;;;;;;;;;;4992873;28;20042;-52
2024/01/11 00:46:54;;;;;;;3.40;1.10;;;;;;;;;;4989399;28;20041;-49
2024/01/11 00:49:20;;;;;;;2.42;1.33;;;;;;;;;;4987918;28;20059;-50
2024/01/11 00:51:45;;;;;;;3.03;1.98;;;;;;;;;;4989104;28;20054;-48
2024/01/11 00:54:11;;;;;;;3.15;1.85;;;;;;;;;;4993302;28;20038;-50
2024/01/11 00:56:36;;;;;;;2.58;1.25;;;;;;;;;;4987161;28;20137;-51
2024/01/11 00:59:03;;;;;;;3.40;2.40;;;;;;;;;;4992192;28;20130;-51
2024/01/11 01:01:28;;;;;;;2.53;1.10;;;;;;;;;;4993627;28;20031;-50
2024/01/11 01:03:54;;;;;;;2.40;2.20;;;;;;;;;;4991464;28;20663;-51
2024/01/11 01:06:19;;;;;;;2.80;1.35;;;;;;;;;;4998876;28;20034;-52
2024/01/11 01:08:44;;;;;;;2.15;1.17;;;;;;;;;;4981390;28;20096;-48
2024/01/11 01:11:10;;;;;;;2.20;1.30;;;;;;;;;;4986547;28;20061;-51
2024/01/11 01:13:35;;;;;;;2.58;1.38;;;;;;;;;;4981807;28;20031;-47
2024/01/11 01:16:01;;;;;;;2.55;1.40;;;;;;;;;;4991757;28;20507;-49
2024/01/11 01:18:26;;;;;;;3.60;1.73;;;;;;;;;;4980245;28;20043;-49
2024/01/11 01:20:51;;;;;;;2.15;1.55;;;;;;;;;;4995386;28;20133;-50
2024/01/11 01:23:18;;;;;;;2.40;1.80;;;;;;;;;;4989834;28;20030;-48
2024/01/11 01:25:43;;;;;;;2.45;1.85;;;;;;;;;;4977870;28;20108;-52
2024/01/11 01:28:09;;;;;;;2.75;1.65;;;;;;;;;;4986696;28;20061;-49
2024/01/11 01:30:34;;;;;;;4.32;1.40;;;;;;;;;;4988672;28;20025;-50
2024/01/11 01:33:00;;;;;;;2.28;1.40;;;;;;;;;;4990268;28;20477;-46
2024/01/11 01:35:25;;;;;;;3.13;2.08;;;;;;;;;;4987882;28;20523;-47
2024/01/11 01:37:50;;;;;;;3.25;1.48;;;;;;;;;;5001953;28;20028;-48
2024/01/11 01:40:16;;;;;;;3.13;1.58;;;;;;;;;;4988493;28;20067;-48
2024/01/11 01:42:46;;;;;;;2.50;2.20;;;;;;;;;;4972740;28;20405;-48
2024/01/11 01:45:12;;;;;;;2.53;1.15;;;;;;;;;;4992835;28;20117;-50
2024/01/11 01:47:40;;;;;;;2.00;1.80;;;;;;;;;;4993704;28;20030;-51
2024/01/11 01:50:07;;;;;;;2.65;1.77;;;;;;;;;;4950860;28;20046;-49
2024/01/11 01:52:34;;;;;;;3.75;2.40;;;;;;;;;;4983992;28;20480;-48
2024/01/11 01:55:01;;;;;;;4.18;1.98;;;;;;;;;;4988335;28;20100;-47
2024/01/11 01:57:26;;;;;;;3.05;1.48;;;;;;;;;;4987566;28;20166;-47
2024/01/11 01:59:52;;;;;;;1.75;1.23;;;;;;;;;;4983224;28;20077;-50
2024/01/11 02:02:20;;;;;;;2.63;1.85;;;;;;;;;;4989771;28;20023;-49
2024/01/11 02:04:46;;;;;;;2.47;1.17;;;;;;;;;;4990733;28;20038;-48
2024/01/11 02:07:11;;;;;;;3.90;3.50;;;;;;;;;;4984310;28;20377;-47
2024/01/11 02:09:37;;;;;;;2.80;1.85;;;;;;;;;;4985030;28;20030;-47
2024/01/11 02:12:03;;;;;;;3.60;1.90;;;;;;;;;;4989606;28;20033;-50
2024/01/11 02:14:29;;;;;;;1.95;1.40;;;;;;;;;;4991052;28;20034;-49
2024/01/11 02:16:54;;;;;;;2.22;1.33;;;;;;;;;;4993591;28;20836;-48
2024/01/11 02:19:20;;;;;;;4.38;1.98;;;;;;;;;;4979181;28;20038;-46
2024/01/11 02:21:48;;;;;;;2.42;1.80;;;;;;;;;;4992204;28;20082;-48
2024/01/11 02:24:13;;;;;;;1.90;0.95;;;;;;;;;;4987693;28;20038;-47
2024/01/11 02:27:01;;;;;;;4.25;2.45;;;;;;;;;;4989638;28;20397;-48
2024/01/11 02:29:27;;;;;;;5.88;2.30;;;;;;;;;;4995423;28;20034;-46
2024/01/11 02:31:52;;;;;;;4.00;1.75;;;;;;;;;;4996680;28;20026;-49
2024/01/11 02:34:18;;;;;;;2.45;1.92;;;;;;;;;;4986093;28;20044;-48
2024/01/11 02:36:44;;;;;;;4.22;1.77;;;;;;;;;;4987031;28;20130;-52
2024/01/11 02:39:10;;;;;;;4.53;1.90;;;;;;;;;;4964024;28;20043;-47
2024/01/11 02:41:37;;;;;;;6.60;1.88;;;;;;;;;;4994403;28;20022;-47
2024/01/11 02:44:02;;;;;;;3.20;1.52;;;;;;;;;;4988299;28;20085;-50
2024/01/11 02:46:28;;;;;;;2.17;1.73;;;;;;;;;;4984486;28;20464;-48
2024/01/11 02:48:53;;;;;;;4.53;1.60;;;;;;;;;;4983931;28;20118;-50
2024/01/11 02:51:19;;;;;;;4.13;1.80;;;;;;;;;;4995803;28;20046;-46
2024/01/11 02:53:44;;;;;;;2.75;1.92;;;;;;;;;;4987247;28;20039;-48
2024/01/11 02:56:09;;;;;;;3.38;1.67;;;;;;;;;;4987119;28;20026;-49
2024/01/11 02:58:35;;;;;;;4.35;2.10;;;;;;;;;;4970853;28;20126;-48
2024/01/11 03:01:00;;;;;;;2.53;2.15;;;;;;;;;;4991404;28;20038;-46
2024/01/11 03:03:25;;;;;;;3.05;1.88;;;;;;;;;;4978302;28;20042;-48
2024/01/11 03:05:51;;;;;;;2.33;1.48;;;;;;;;;;4995439;28;20070;-51
2024/01/11 03:08:16;;;;;;;3.47;2.38;;;;;;;;;;4980678;28;20109;-48
2024/01/11 03:10:42;;;;;;;2.30;1.70;;;;;;;;;;4989970;28;20542;-49
2024/01/11 03:13:07;;;;;;;2.33;2.13;;;;;;;;;;4987785;28;20435;-48
2024/01/11 03:15:33;;;;;;;2.45;2.20;;;;;;;;;;4983107;28;20473;-46
2024/01/11 03:17:58;;;;;;;2.30;1.25;;;;;;;;;;4983885;28;20034;-46
2024/01/11 03:20:24;;;;;;;2.38;1.38;;;;;;;;;;4992713;28;20035;-51
2024/01/11 03:22:52;;;;;;;2.10;1.60;;;;;;;;;;4987968;28;20058;-52
2024/01/11 03:25:18;;;;;;;2.53;1.15;;;;;;;;;;4990734;28;20047;-50
2024/01/11 03:27:44;;;;;;;3.28;1.60;;;;;;;;;;4981784;28;20182;-48
2024/01/11 03:30:10;;;;;;;3.03;1.38;;;;;;;;;;4990176;28;20030;-50
2024/01/11 03:32:36;;;;;;;2.63;1.33;;;;;;;;;;4994548;28;20048;-47
2024/01/11 03:35:01;;;;;;;2.08;1.70;;;;;;;;;;4985491;28;20042;-48
2024/01/11 03:37:26;;;;;;;3.85;1.95;;;;;;;;;;4987704;28;20027;-48
2024/01/11 03:39:52;;;;;;;3.67;2.22;;;;;;;;;;4984409;28;20042;-49
2024/01/11 03:42:17;;;;;;;2.33;1.20;;;;;;;;;;4989439;28;20026;-48
2024/01/11 03:44:43;;;;;;;4.65;2.10;;;;;;;;;;4985036;28;20092;-48
2024/01/11 03:47:08;;;;;;;3.20;1.60;;;;;;;;;;4993379;28;20026;-46
2024/01/11 03:49:34;;;;;;;2.75;1.75;;;;;;;;;;4990279;28;20540;-49
2024/01/11 03:51:59;;;;;;;5.03;2.03;;;;;;;;;;4984496;28;20066;-48
2024/01/11 03:54:24;;;;;;;3.22;2.75;;;;;;;;;;4982000;28;20074;-51
2024/01/11 03:56:50;;;;;;;4.95;2.55;;;;;;;;;;4982068;28;20039;-47
2024/01/11 03:59:16;;;;;;;2.72;1.75;;;;;;;;;;4981622;28;20035;-48
2024/01/11 04:01:42;;;;;;;2.95;1.40;;;;;;;;;;4984096;28;20023;-49
2024/01/11 04:04:07;;;;;;;3.17;2.00;;;;;;;;;;4982230;28;20515;-48
2024/01/11 04:06:33;;;;;;;4.35;2.25;;;;;;;;;;4989483;28;20041;-45
2024/01/11 04:08:58;;;;;;;2.60;1.45;;;;;;;;;;4990034;28;20042;-47
2024/01/11 04:11:28;;;;;;;3.15;2.20;;;;;;;;;;4979265;28;20022;-49
2024/01/11 04:13:53;;;;;;;;;;;;;;;;;;4985233;28;20074;-46
2024/01/11 04:16:18;;;;;;;3.35;2.00;;;;;;;;;;4989588;28;19909;-46
2024/01/11 04:18:44;;;;;;;3.45;1.95;;;;;;;;;;4986804;28;20098;-49
2024/01/11 04:21:21;;;;;;;3.40;2.20;;;;;;;;;;4998922;28;20552;-46
2024/01/11 04:23:46;;;;;;;2.60;1.95;;;;;;;;;;4990864;28;20038;-47
2024/01/11 04:26:12;;;;;;;4.05;3.22;;;;;;;;;;4996943;28;20470;-49
2024/01/11 04:28:37;;;;;;;3.13;1.65;;;;;;;;;;4982185;28;20449;-49
2024/01/11 04:31:02;;;;;;;5.88;3.25;;;;;;;;;;4999102;28;20407;-47
2024/01/11 04:33:28;;;;;;;3.47;2.00;;;;;;;;;;4987932;28;20047;-49
2024/01/11 04:35:53;;;;;;;3.80;2.17;;;;;;;;;;4986076;28;20548;-49
2024/01/11 04:38:18;;;;;;;3.05;2.22;;;;;;;;;;4988577;28;20516;-47
2024/01/11 04:40:44;;;;;;;3.05;2.35;;;;;;;;;;4989699;28;20035;-46
2024/01/11 04:43:10;;;;;;;3.80;1.92;;;;;;;;;;4994792;28;20114;-51
2024/01/11 04:45:35;;;;;;;3.55;2.00;;;;;;;;;;4982537;28;20445;-48
2024/01/11 04:48:01;;;;;;;3.97;1.92;;;;;;;;;;4982659;28;20033;-49
2024/01/11 04:50:26;;;;;;;3.40;2.28;;;;;;;;;;4986436;28;20046;-52
2024/01/11 04:52:52;;;;;;;3.92;3.47;;;;;;;;;;4997834;28;20282;-48
2024/01/11 04:55:17;;;;;;;5.28;2.15;;;;;;;;;;4996523;28;20563;-49
2024/01/11 04:57:42;;;;;;;2.90;1.70;;;;;;;;;;4997218;28;20045;-52
2024/01/11 05:00:08;;;;;;;4.07;2.25;;;;;;;;;;4986487;28;20034;-47
2024/01/11 05:02:33;;;;;;;3.25;2.10;;;;;;;;;;4992404;28;20026;-48
2024/01/11 05:04:59;;;;;;;4.43;2.40;;;;;;;;;;4987593;28;20038;-49
2024/01/11 05:07:26;;;;;;;4.03;1.88;;;;;;;;;;4995534;28;20117;-50
2024/01/11 05:09:52;;;;;;;2.70;2.50;;;;;;;;;;4990403;28;20027;-45
2024/01/11 05:12:17;;;;;;;3.08;2.53;;;;;;;;;;4990765;28;20150;-45
2024/01/11 05:14:42;;;;;;;2.72;1.75;;;;;;;;;;4992110;28;20038;-44
2024/01/11 05:17:08;;;;;;;4.68;2.58;;;;;;;;;;4985552;28;20026;-45
2024/01/11 05:19:33;;;;;;;3.08;1.95;;;;;;;;;;4979283;28;20066;-43
2024/01/11 05:21:59;;;;;;;3.35;1.80;;;;;;;;;;4967144;28;20026;-47
2024/01/11 05:24:24;;;;;;;4.57;2.53;;;;;;;;;;4989985;28;20050;-45
2024/01/11 05:26:50;;;;;;;4.47;2.30;;;;;;;;;;4979223;28;20033;-46
2024/01/11 05:29:15;;;;;;;2.60;2.35;;;;;;;;;;4985249;28;20050;-49
2024/01/11 05:31:40;;;;;;;4.45;3.95;;;;;;;;;;5009651;28;20091;-48
2024/01/11 05:34:06;;;;;;;2.95;1.90;;;;;;;;;;4992458;28;20089;-46
2024/01/11 05:36:31;;;;;;;5.07;2.88;;;;;;;;;;4992213;28;20038;-50
2024/01/11 05:38:56;;;;;;;8.65;4.78;;;;;;;;;;4995794;28;20129;-50
2024/01/11 05:41:22;;;;;;;3.60;2.78;;;;;;;;;;4985940;28;20401;-50
2024/01/11 05:43:47;;;;;;;5.32;3.75;;;;;;;;;;4989117;28;20102;-53
2024/01/11 05:46:13;;;;;;;18.13;9.65;;;;;;;;;;4991643;28;20086;-48
2024/01/11 05:48:38;;;;;;;29.13;13.95;;;;;;;;;;4990515;28;20034;-48
2024/01/11 05:51:04;;;;;;;23.63;13.45;;;;;;;;;;4979091;28;20038;-49
2024/01/11 05:53:29;;;;;;;11.55;8.45;;;;;;;;;;4992379;28;20034;-45
2024/01/11 05:55:54;;;;;;;4.45;2.72;;;;;;;;;;4992808;28;20113;-46
2024/01/11 05:58:20;;;;;;;6.88;5.07;;;;;;;;;;4991129;28;20034;-50
2024/01/11 06:00:46;;;;;;;8.48;6.97;;;;;;;;;;4992163;28;20126;-52
2024/01/11 06:03:12;;;;;;;6.53;4.78;;;;;;;;;;4998154;28;20052;-47
2024/01/11 06:05:37;;;;;;;6.32;4.80;;;;;;;;;;4985290;28;20030;-48
2024/01/11 06:08:03;;;;;;;3.97;3.08;;;;;;;;;;4987469;28;20037;-48
2024/01/11 06:10:28;;;;;;;5.90;3.65;;;;;;;;;;4995870;28;20556;-50
2024/01/11 06:12:56;;;;;;;7.45;6.85;;;;;;;;;;4992047;28;20413;-48
2024/01/11 06:15:21;;;;;;;6.47;5.57;;;;;;;;;;4991701;28;20089;-50
2024/01/11 06:17:47;;;;;;;7.28;6.07;;;;;;;;;;5005524;28;20038;-50
2024/01/11 06:20:12;;;;;;;8.73;5.18;;;;;;;;;;4987540;28;20038;-48
2024/01/11 06:22:38;;;;;;;6.05;4.22;;;;;;;;;;4995551;28;20081;-50
2024/01/11 06:25:03;;;;;;;6.95;4.70;;;;;;;;;;4989750;28;20039;-48
2024/01/11 06:27:29;;;;;;;4.88;4.13;;;;;;;;;;4994556;28;20030;-47
2024/01/11 06:29:54;;;;;;;7.00;5.20;;;;;;;;;;4993085;28;20027;-50
2024/01/11 06:32:20;;;;;;;5.55;4.22;;;;;;;;;;4992477;28;20030;-53
2024/01/11 06:34:45;;;;;;;8.38;5.93;;;;;;;;;;4984707;28;20042;-47
2024/01/11 06:37:12;;;;;;;9.32;4.95;;;;;;;;;;4987882;28;20027;-46
2024/01/11 06:39:37;;;;;;;4.75;3.33;;;;;;;;;;4978496;28;20030;-46
2024/01/11 06:42:03;;;;;;;6.68;4.57;;;;;;;;;;4989670;28;20038;-45
2024/01/11 06:44:28;;;;;;;4.63;2.72;;;;;;;;;;4986185;28;20074;-50
2024/01/11 06:46:53;;;;;;;3.92;2.65;;;;;;;;;;4988497;28;20033;-48
2024/01/11 06:49:19;;;;;;;2.53;2.20;;;;;;;;;;4979360;28;20038;-47
2024/01/11 06:51:44;;;;;;;4.28;3.00;;;;;;;;;;4979940;28;20054;-48
2024/01/11 06:54:10;;;;;;;3.97;3.58;;;;;;;;;;4980766;28;20085;-48
2024/01/11 06:56:35;;;;;;;4.38;3.63;;;;;;;;;;4980371;28;20033;-47
2024/01/11 06:59:01;;;;;;;7.95;7.07;;;;;;;;;;4980703;28;20963;-51
2024/01/11 07:01:26;;;;;;;8.25;6.80;;;;;;;;;;4986049;28;20179;-46
2024/01/11 07:03:52;;;;;;;10.00;8.52;;;;;;;;;;4989944;28;20049;-47
2024/01/11 07:06:17;;;;;;;10.25;6.72;;;;;;;;;;4992922;28;20097;-47
2024/01/11 07:08:42;;;;;;;12.45;6.25;;;;;;;;;;4983555;28;20042;-46
2024/01/11 07:11:08;;;;;;;11.13;6.53;;;;;;;;;;4990516;28;20023;-46
2024/01/11 07:13:33;;;;;;;7.78;5.13;;;;;;;;;;4988679;28;20133;-46
2024/01/11 07:15:59;;;;;;;6.55;4.50;;;;;;;;;;4992952;28;20030;-50
2024/01/11 07:18:28;;;;;;;5.90;4.28;;;;;;;;;;4982376;28;20453;-47
2024/01/11 07:20:57;;;;;;;3.42;2.25;;;;;;;;;;4980319;28;20026;-46
2024/01/11 07:23:22;;;;;;;4.00;2.38;;;;;;;;;;4987805;28;20051;-48
2024/01/11 07:25:47;;;;;;;2.97;2.38;;;;;;;;;;4967860;28;20030;-47
2024/01/11 07:28:13;;;;;;;4.93;1.65;;;;;;;;;;4984096;28;20464;-45
2024/01/11 07:30:39;;;;;;;5.18;1.77;;;;;;;;;;4989639;28;20022;-45
2024/01/11 07:33:05;;;;;;;4.18;2.72;;;;;;;;;;4981560;28;20440;-51
2024/01/11 07:35:31;;;;;;;5.82;3.72;;;;;;;;;;4984850;28;20026;-45
2024/01/11 07:37:57;;;;;;;5.45;4.10;;;;;;;;;;4993139;28;20049;-46
2024/01/11 07:40:22;;;;;;;5.43;4.40;;;;;;;;;;4988559;28;20031;-46
2024/01/11 07:42:48;;;;;;;3.55;2.85;;;;;;;;;;4986582;28;20031;-49
2024/01/11 07:45:13;;;;;;;4.20;2.78;;;;;;;;;;4983614;28;20042;-47
2024/01/11 07:47:39;;;;;;;3.90;2.47;;;;;;;;;;4986774;28;20042;-50
2024/01/11 07:50:12;;;;;;;4.95;3.10;;;;;;;;;;4985573;28;20042;-47
2024/01/11 07:52:40;;;;;;;8.68;4.40;;;;;;;;;;4995095;28;20141;-48
2024/01/11 07:55:07;;;;;;;8.48;4.88;;;;;;;;;;4995815;28;20033;-47
2024/01/11 07:57:34;;;;;;;6.55;4.25;;;;;;;;;;4997139;28;20530;-47
2024/01/11 07:59:59;;;;;;;5.25;3.13;;;;;;;;;;4985350;28;20037;-47
2024/01/11 08:02:25;;;;;;;6.30;4.00;;;;;;;;;;4988728;28;20747;-47
2024/01/11 08:04:50;;;;;;;5.05;3.58;;;;;;;;;;4976671;28;20038;-46
2024/01/11 08:07:16;;;;;;;5.10;3.00;;;;;;;;;;4992714;28;20030;-45
2024/01/11 08:09:45;;;;;;;4.45;3.60;;;;;;;;;;4988711;28;20062;-47
2024/01/11 08:12:11;;;;;;;7.57;3.95;;;;;;;;;;4986918;28;20030;-51
2024/01/11 08:14:36;;;;;;;10.63;3.28;;;;;;;;;;4995581;28;20050;-47
2024/01/11 08:17:04;;;;;;;5.35;2.67;;;;;;;;;;4983833;28;20557;-46
2024/01/11 08:19:30;;;;;;;2.70;2.25;;;;;;;;;;4988277;28;20038;-47
2024/01/11 08:21:56;;;;;;;3.63;2.10;;;;;;;;;;4997759;28;20023;-46
2024/01/11 08:24:22;;;;;;;4.85;2.63;;;;;;;;;;4995870;28;20030;-44
2024/01/11 08:26:47;;;;;;;3.33;2.35;;;;;;;;;;4995290;28;20031;-50
2024/01/11 08:29:13;;;;;;;4.25;2.53;;;;;;;;;;4993464;28;20039;-46
2024/01/11 08:31:39;;;;;;;4.32;2.95;;;;;;;;;;4991435;28;20469;-44
2024/01/11 08:34:04;;;;;;;3.53;2.53;;;;;;;;;;4988386;28;20038;-46
2024/01/11 08:36:34;;;;;;;4.65;2.63;;;;;;;;;;4993538;28;20030;-45
2024/01/11 08:38:59;;;;;;;4.30;2.63;;;;;;;;;;4994688;28;20037;-43
2024/01/11 08:41:25;;;;;;;5.43;3.00;;;;;;;;;;4994723;28;20018;-48
2024/01/11 08:43:51;;;;;;;3.80;2.30;;;;;;;;;;4988119;28;20098;-44
2024/01/11 08:46:25;;;;;;;4.60;2.72;;;;;;;;;;4992044;28;20042;-45
2024/01/11 08:48:51;;;;;;;4.57;2.40;;;;;;;;;;4986730;28;20046;-47
2024/01/11 08:51:17;;;;;;;5.57;3.17;;;;;;;;;;4995513;28;20132;-48
2024/01/11 08:53:42;;;;;;;5.57;3.45;;;;;;;;;;4988396;28;20062;-45
2024/01/11 08:56:07;;;;;;;4.30;2.63;;;;;;;;;;4973387;28;20482;-45
2024/01/11 08:58:33;;;;;;;4.55;2.72;;;;;;;;;;4987477;28;20575;-44
2024/01/11 09:00:58;;;;;;;5.70;3.45;;;;;;;;;;5002670;28;20081;-46
2024/01/11 09:03:24;;;;;;;19.58;11.98;;;;;;;;;;4983183;28;20039;-44
2024/01/11 09:05:50;;;;;;;27.42;16.92;;;;;;;;;;4990216;28;20621;-47
2024/01/11 09:08:15;;;;;;;25.15;17.17;;;;;;;;;;4989606;28;20105;-47
2024/01/11 09:10:41;;;;;;;23.08;14.73;;;;;;;;;;4988591;28;20065;-47
2024/01/11 09:13:07;;;;;;;7.03;4.50;;;;;;;;;;4987214;28;20034;-44
2024/01/11 09:15:33;;;;;;;7.28;3.47;;;;;;;;;;4985950;28;20045;-46
2024/01/11 09:18:02;;;;;;;6.53;3.92;;;;;;;;;;4997328;28;20026;-49
2024/01/11 09:20:28;;;;;;;7.70;4.35;;;;;;;;;;4990052;28;20046;-44
2024/01/11 09:22:53;;;;;;;9.10;7.00;;;;;;;;;;4996585;28;20396;-44
2024/01/11 09:25:18;;;;;;;9.10;5.95;;;;;;;;;;4988883;28;20161;-46
2024/01/11 09:27:44;;;;;;;11.60;6.97;;;;;;;;;;4994506;28;20033;-44
2024/01/11 09:30:10;;;;;;;6.10;4.25;;;;;;;;;;4989567;28;20042;-44
2024/01/11 09:32:35;;;;;;;12.55;8.18;;;;;;;;;;4986031;28;20026;-46
2024/01/11 09:35:02;;;;;;;22.00;15.80;;;;;;;;;;4988269;28;20042;-44
2024/01/11 09:37:28;;;;;;;13.30;11.13;;;;;;;;;;4990938;28;20574;-45
2024/01/11 09:39:53;;;;;;;8.82;5.38;;;;;;;;;;4980987;28;20034;-47
2024/01/11 09:42:18;;;;;;;10.45;5.47;;;;;;;;;;4979668;28;20031;-45
2024/01/11 09:44:44;;;;;;;10.00;6.38;;;;;;;;;;4987738;28;20039;-45
2024/01/11 09:47:11;;;;;;;11.25;8.15;;;;;;;;;;4990829;28;20187;-45
2024/01/11 09:49:38;;;;;;;10.50;8.05;;;;;;;;;;4992163;28;20028;-46
2024/01/11 09:52:05;;;;;;;10.73;8.32;;;;;;;;;;4992460;28;20061;-45
2024/01/11 09:54:30;;;;;;;12.05;8.55;;;;;;;;;;4993781;28;20046;-44
2024/01/11 09:56:58;;;;;;;10.70;6.53;;;;;;;;;;4975684;28;20030;-46
2024/01/11 09:59:25;;;;;;;10.27;6.55;;;;;;;;;;4992458;28;20097;-44
2024/01/11 10:01:51;;;;;;;11.32;7.63;;;;;;;;;;4989781;28;20038;-49
2024/01/11 10:04:17;;;;;;;9.52;6.93;;;;;;;;;;4990128;28;20035;-44
2024/01/11 10:06:43;;;;;;;12.20;8.23;;;;;;;;;;4988989;28;20054;-45
2024/01/11 10:09:09;;;;;;;10.07;7.15;;;;;;;;;;4980705;28;20042;-48
2024/01/11 10:11:34;;;;;;;12.18;9.13;;;;;;;;;;4989678;28;20022;-46
2024/01/11 10:14:01;;;;;;;13.95;8.30;;;;;;;;;;4988411;28;20045;-43
2024/01/11 10:16:28;;;;;;;10.13;7.05;;;;;;;;;;4988464;28;20027;-44
2024/01/11 10:18:57;;;;;;;11.45;8.82;;;;;;;;;;4990127;28;20042;-46
2024/01/11 10:21:23;;;;;;;9.25;6.80;;;;;;;;;;4984284;28;20764;-43
2024/01/11 10:23:49;;;;;;;9.32;6.38;;;;;;;;;;4984381;28;20042;-46
2024/01/11 10:26:19;;;;;;;11.00;7.03;;;;;;;;;;4987210;28;20077;-45
2024/01/11 10:28:47;;;;;;;9.85;6.60;;;;;;;;;;4981913;28;20042;-45
2024/01/11 10:31:16;;;;;;;7.78;5.43;;;;;;;;;;4991320;28;20034;-44
2024/01/11 10:33:43;;;;;;;11.55;8.18;;;;;;;;;;4989971;28;20046;-45
2024/01/11 10:36:09;;;;;;;11.57;7.97;;;;;;;;;;4989175;28;20118;-49
2024/01/11 10:38:36;;;;;;;7.93;6.82;;;;;;;;;;4984479;28;20429;-44
2024/01/11 10:41:05;;;;;;;10.73;8.73;;;;;;;;;;4999414;28;20026;-47
2024/01/11 10:43:34;;;;;;;10.30;6.25;;;;;;;;;;4990509;28;20057;-45
2024/01/11 10:46:02;;;;;;;;;;;;;;;;;;4991002;28;20038;-45
2024/01/11 10:48:30;;;;;;;12.07;7.38;;;;;;;;;;4991684;28;20008;-48
2024/01/11 10:51:05;;;;;;;10.50;7.40;;;;;;;;;;4988479;28;20022;-47
2024/01/11 10:53:48;;;;;;;10.60;7.85;;;;;;;;;;4982661;28;20054;-46
2024/01/11 10:56:18;;;;;;;11.23;8.35;;;;;;;;;;4981703;28;20113;-47
2024/01/11 10:58:44;;;;;;;9.13;6.03;;;;;;;;;;4982637;28;20041;-45
2024/01/11 11:01:11;;;;;;;10.05;7.10;;;;;;;;;;4982600;28;20049;-49
2024/01/11 11:03:38;;;;;;;9.05;6.53;;;;;;;;;;4980789;28;20038;-46
2024/01/11 11:06:05;;;;;;;11.45;7.90;;;;;;;;;;4982360;28;20054;-44
2024/01/11 11:08:31;;;;;;;10.73;6.43;;;;;;;;;;4976356;28;20492;-47
2024/01/11 11:10:58;;;;;;;15.77;10.25;;;;;;;;;;4995203;28;20029;-49
2024/01/11 11:13:24;;;;;;;13.93;9.05;;;;;;;;;;4978130;28;20038;-47
2024/01/11 11:15:50;;;;;;;19.73;11.77;;;;;;;;;;4979463;28;20034;-47
2024/01/11 11:18:16;;;;;;;19.15;13.82;;;;;;;;;;4982433;28;20080;-44
2024/01/11 11:20:42;;;;;;;15.32;10.52;;;;;;;;;;4980386;28;20057;-47
2024/01/11 11:23:10;;;;;;;19.35;10.77;;;;;;;;;;4976726;28;20034;-47
2024/01/11 11:25:36;;;;;;;18.48;12.05;;;;;;;;;;4978146;28;20460;-47
2024/01/11 11:28:04;;;;;;;18.33;13.23;;;;;;;;;;4979933;28;20035;-44
2024/01/11 11:30:36;;;;;;;17.95;11.75;;;;;;;;;;4982679;28;20034;-45
2024/01/11 11:33:17;;;;;;;20.63;10.55;;;;;;;;;;4990517;28;20045;-48
2024/01/11 11:35:42;;;;;;;18.30;11.50;;;;;;;;;;4985233;28;20480;-46
2024/01/11 11:38:08;;;;;;;18.20;13.40;;;;;;;;;;4986591;28;20190;-49
2024/01/11 11:40:42;;;;;;;17.17;11.00;;;;;;;;;;4986019;28;20042;-48
2024/01/11 11:43:08;;;;;;;18.90;11.70;;;;;;;;;;4979477;28;20498;-47
2024/01/11 11:45:35;;;;;;;20.83;12.23;;;;;;;;;;4981246;28;20481;-45
2024/01/11 11:48:01;;;;;;;17.40;11.77;;;;;;;;;;4980243;28;20122;-48
2024/01/11 11:50:29;;;;;;;19.17;11.18;;;;;;;;;;4986926;28;20033;-48
2024/01/11 11:52:58;;;;;;;16.85;11.25;;;;;;;;;;4985807;28;20046;-48
2024/01/11 11:55:25;;;;;;;18.90;11.63;;;;;;;;;;4979697;28;20089;-48
2024/01/11 11:57:52;;;;;;;19.65;12.95;;;;;;;;;;4980404;28;20031;-46
2024/01/11 12:00:17;;;;;;;15.82;12.10;;;;;;;;;;4980394;28;20439;-45
2024/01/11 12:02:43;;;;;;;20.23;13.73;;;;;;;;;;4977188;28;20058;-49
2024/01/11 12:05:08;;;;;;;21.70;14.00;;;;;;;;;;4988609;28;20574;-45
2024/01/11 12:07:34;;;;;;;19.52;12.80;;;;;;;;;;4975305;28;20035;-45
2024/01/11 12:10:00;;;;;;;18.27;13.65;;;;;;;;;;4972874;28;20043;-47
2024/01/11 12:12:25;;;;;;;19.75;12.48;;;;;;;;;;4980954;28;20042;-46
2024/01/11 12:14:53;;;;;;;18.77;13.85;;;;;;;;;;4980391;28;20041;-45
2024/01/11 12:17:18;;;;;;;17.75;13.68;;;;;;;;;;4980870;28;20026;-47
2024/01/11 12:19:44;;;;;;;25.17;18.13;;;;;;;;;;4983048;28;20546;-46
2024/01/11 12:22:10;;;;;;;23.08;15.05;;;;;;;;;;4985519;28;20034;-46
2024/01/11 12:24:35;;;;;;;19.70;13.20;;;;;;;;;;4982611;28;20631;-48
2024/01/11 12:27:01;;;;;;;22.48;16.42;;;;;;;;;;4985054;28;20464;-48
2024/01/11 12:29:30;;;;;;;23.52;15.25;;;;;;;;;;4982082;28;20047;-45
2024/01/11 12:31:57;;;;;;;22.42;14.45;;;;;;;;;;4979269;28;20086;-48
2024/01/11 12:34:24;;;;;;;24.38;17.38;;;;;;;;;;4991698;28;20473;-47
2024/01/11 12:36:49;;;;;;;22.08;14.68;;;;;;;;;;4990851;28;20041;-44
2024/01/11 12:39:16;;;;;;;22.52;14.77;;;;;;;;;;4988613;28;20579;-46
2024/01/11 12:41:42;;;;;;;21.85;14.43;;;;;;;;;;4981532;28;20035;-48
2024/01/11 12:44:07;;;;;;;21.42;14.70;;;;;;;;;;4996831;28;20042;-45
2024/01/11 12:46:33;;;;;;;24.52;16.92;;;;;;;;;;4987806;28;20484;-47
2024/01/11 12:48:58;;;;;;;22.63;17.33;;;;;;;;;;4989262;28;20397;-49
2024/01/11 12:51:26;;;;;;;21.90;15.38;;;;;;;;;;4991313;28;20039;-50
2024/01/11 12:53:52;;;;;;;24.08;15.88;;;;;;;;;;4993272;28;20049;-44
2024/01/11 12:56:21;;;;;;;24.70;15.15;;;;;;;;;;4992333;28;20026;-47
2024/01/11 12:58:46;;;;;;;24.88;15.20;;;;;;;;;;4997868;28;20069;-49
2024/01/11 13:01:14;;;;;;;20.52;13.20;;;;;;;;;;4988245;28;20062;-47
2024/01/11 13:03:44;;;;;;;22.77;14.65;;;;;;;;;;4995272;28;20080;-47
2024/01/11 13:06:11;;;;;;;22.58;14.68;;;;;;;;;;4987764;28;20159;-47
2024/01/11 13:08:41;;;;;;;24.80;16.77;;;;;;;;;;4991364;28;20117;-51
2024/01/11 13:11:07;;;;;;;25.70;15.52;;;;;;;;;;4986565;28;20034;-47
2024/01/11 13:13:34;;;;;;;23.65;14.30;;;;;;;;;;4987658;28;20046;-44
2024/01/11 13:15:59;;;;;;;26.35;17.70;;;;;;;;;;4985326;28;20026;-50
2024/01/11 13:18:25;;;;;;;22.85;15.98;;;;;;;;;;4986660;28;20058;-46
2024/01/11 13:20:50;;;;;;;26.60;18.58;;;;;;;;;;4986273;28;20031;-46
2024/01/11 13:23:20;;;;;;;26.38;18.13;;;;;;;;;;4989400;28;20113;-47
2024/01/11 13:25:48;;;;;;;23.88;16.30;;;;;;;;;;4993969;28;20042;-45
2024/01/11 13:28:13;;;;;;;27.55;17.30;;;;;;;;;;4983372;28;20105;-46
2024/01/11 13:30:43;;;;;;;22.55;15.38;;;;;;;;;;4986991;28;20109;-46
2024/01/11 13:33:10;;;;;;;20.52;13.55;;;;;;;;;;4989692;28;20030;-47
2024/01/11 13:35:36;;;;;;;29.98;19.50;;;;;;;;;;4985540;28;20035;-47
2024/01/11 13:38:02;;;;;;;28.15;16.55;;;;;;;;;;4990926;28;20038;-44
2024/01/11 13:40:29;;;;;;;26.88;18.20;;;;;;;;;;4982416;28;20025;-44
2024/01/11 13:42:56;;;;;;;27.15;17.50;;;;;;;;;;4984169;28;20030;-45
2024/01/11 13:45:22;;;;;;;24.20;17.17;;;;;;;;;;4982669;28;20061;-46
2024/01/11 13:47:47;;;;;;;25.42;16.55;;;;;;;;;;4983237;28;20058;-44
2024/01/11 13:50:12;;;;;;;23.88;16.63;;;;;;;;;;4993876;28;20061;-50
2024/01/11 13:52:38;;;;;;;22.08;13.40;;;;;;;;;;4993770;28;20049;-48
2024/01/11 13:55:04;;;;;;;20.63;15.18;;;;;;;;;;4981944;28;20041;-50
2024/01/11 13:57:29;;;;;;;28.33;17.52;;;;;;;;;;4989479;28;20072;-48
2024/01/11 13:59:55;;;;;;;24.63;15.55;;;;;;;;;;4990776;28;20027;-47
2024/01/11 14:02:22;;;;;;;21.38;14.40;;;;;;;;;;4992271;28;20050;-48
2024/01/11 14:04:48;;;;;;;24.23;15.80;;;;;;;;;;4986674;28;20049;-45
2024/01/11 14:07:13;;;;;;;21.42;14.40;;;;;;;;;;4986625;28;20119;-44
2024/01/11 14:09:39;;;;;;;20.73;13.20;;;;;;;;;;4987007;28;20034;-45
2024/01/11 14:12:05;;;;;;;23.40;14.00;;;;;;;;;;4995028;28;20080;-47
2024/01/11 14:14:30;;;;;;;21.25;13.88;;;;;;;;;;4985711;28;20039;-45
2024/01/11 14:16:55;;;;;;;19.63;13.75;;;;;;;;;;4987467;28;20029;-48
2024/01/11 14:19:21;;;;;;;28.73;17.30;;;;;;;;;;4988298;28;20077;-47
2024/01/11 14:21:46;;;;;;;23.38;15.02;;;;;;;;;;4989642;28;20416;-50
2024/01/11 14:24:12;;;;;;;22.17;17.13;;;;;;;;;;5000032;28;20501;-51
2024/01/11 14:26:38;;;;;;;18.70;14.77;;;;;;;;;;4987435;28;20400;-51
2024/01/11 14:29:03;;;;;;;19.08;13.02;;;;;;;;;;4994414;28;20058;-46